createdAt,value
2023-04-04T00:03:35.017Z,45459.22
2023-04-04T00:08:40.779Z,45407.31
2023-04-04T00:13:45.689Z,45363.38
2023-04-04T00:18:50.638Z,45321.44
2023-04-04T00:23:57.211Z,45341.41
2023-04-04T00:29:01.441Z,45275.53
2023-04-04T00:34:07.138Z,45263.56
2023-04-04T00:39:12.777Z,45187.69
2023-04-04T00:44:17.111Z,45159.72
2023-04-04T00:49:21.256Z,45059.91
2023-04-04T00:54:27.175Z,45029.97
2023-04-04T00:59:32.994Z,45037.94
2023-04-04T01:04:37.903Z,44992.03
2023-04-04T01:09:43.708Z,44942.13
2023-04-04T01:14:48.273Z,44894.22
2023-04-04T01:20:02.534Z,44852.28
2023-04-04T01:25:17.848Z,44794.38
2023-04-04T01:30:30.090Z,44656.66
2023-04-04T01:35:43.695Z,44672.63
2023-04-04T01:40:52.798Z,44586.78
2023-04-04T01:46:01.654Z,44566.81
2023-04-04T01:51:07.528Z,44443.06
2023-04-04T01:56:11.961Z,44383.16
2023-04-04T02:01:18.568Z,44413.09
2023-04-04T02:06:22.914Z,44389.16
2023-04-04T02:11:27.832Z,44339.25
2023-04-04T02:16:34.042Z,44365.19
2023-04-04T02:21:38.339Z,44297.34
2023-04-04T02:26:43.031Z,44255.41
2023-04-04T02:31:49.964Z,44297.34
2023-04-04T02:36:54.304Z,44273.38
2023-04-04T02:42:00.366Z,44209.50
2023-04-04T02:47:07.610Z,44147.63
2023-04-04T02:52:11.854Z,44107.72
2023-04-04T02:57:20.473Z,44117.69
2023-04-04T03:02:27.526Z,44133.66
2023-04-04T03:07:32.472Z,44111.72
2023-04-04T03:12:36.994Z,44107.72
2023-04-04T03:17:43.065Z,44067.78
2023-04-04T03:22:47.502Z,44111.72
2023-04-04T03:27:51.841Z,44069.78
2023-04-04T03:33:08.716Z,44097.72
2023-04-04T03:38:15.451Z,44041.84
2023-04-04T03:43:19.971Z,44049.84
2023-04-04T03:48:26.021Z,44049.84
2023-04-04T03:53:31.268Z,43938.06
2023-04-04T03:58:37.647Z,43880.19
2023-04-04T04:03:43.269Z,43786.38
2023-04-04T04:08:48.807Z,43736.47
2023-04-04T04:13:53.775Z,43786.38
2023-04-04T04:18:59.902Z,43816.31
2023-04-04T04:24:13.646Z,43902.13
2023-04-04T04:29:18.190Z,44053.81
2023-04-04T04:34:24.629Z,44045.84
2023-04-04T04:39:29.294Z,44099.72
2023-04-04T04:44:45.435Z,44105.72
2023-04-04T04:49:51.652Z,44081.75
2023-04-04T04:55:02.712Z,44151.63
2023-04-04T05:00:08.657Z,44185.56
2023-04-04T05:05:15.123Z,44173.59
2023-04-04T05:10:19.900Z,44159.59
2023-04-04T05:15:25.998Z,44221.50
2023-04-04T05:20:32.238Z,44261.41
2023-04-04T05:25:38.990Z,44299.34
2023-04-04T05:30:43.522Z,44297.34
2023-04-04T05:36:03.220Z,44381.16
2023-04-04T05:41:10.343Z,44395.16
2023-04-04T05:46:15.046Z,44397.16
2023-04-04T05:51:25.193Z,44397.16
2023-04-04T05:56:42.844Z,44425.09
2023-04-04T06:02:02.114Z,44451.03
2023-04-04T06:07:09.149Z,44536.88
2023-04-04T06:12:13.335Z,44473.00
2023-04-04T06:17:18.984Z,44546.84
2023-04-04T06:22:24.564Z,44672.63
2023-04-04T06:27:31.484Z,44828.31
2023-04-04T06:32:37.937Z,44882.22
2023-04-04T06:37:45.132Z,44978.06
2023-04-04T06:42:55.390Z,45253.56
2023-04-04T06:48:01.901Z,45477.19
2023-04-04T06:53:08.185Z,45553.06
2023-04-04T06:58:12.500Z,45630.94
2023-04-04T07:03:17.411Z,45940.44
2023-04-04T07:08:23.260Z,45994.38
2023-04-04T07:13:27.465Z,45860.56
2023-04-04T07:18:31.684Z,46002.34
2023-04-04T07:23:37.567Z,46050.28
2023-04-04T07:28:41.871Z,46214.03
2023-04-04T07:33:46.206Z,46208.03
2023-04-04T07:38:51.772Z,46178.09
2023-04-04T07:43:56.215Z,46345.84
2023-04-04T07:49:01.351Z,46287.91
2023-04-04T07:54:07.675Z,46325.88
2023-04-04T07:59:12.294Z,46301.91
2023-04-04T08:04:16.880Z,46603.47
2023-04-04T08:09:22.794Z,46605.47
2023-04-04T08:14:27.804Z,46637.44
2023-04-04T08:19:32.121Z,46639.44
2023-04-04T08:24:38.170Z,46669.38
2023-04-04T08:29:42.837Z,46703.34
2023-04-04T08:34:47.550Z,46673.38
2023-04-04T08:39:53.342Z,46649.41
2023-04-04T08:45:00.874Z,46657.41
2023-04-04T08:50:07.778Z,46625.44
2023-04-04T08:55:16.284Z,46625.44
2023-04-04T09:00:21.710Z,46637.44
2023-04-04T09:05:27.443Z,46649.41
2023-04-04T09:10:33.454Z,46541.56
2023-04-04T09:15:39.812Z,46493.63
2023-04-04T09:20:45.475Z,46553.53
2023-04-04T09:31:02.574Z,46525.59
2023-04-04T09:36:10.485Z,46589.50
2023-04-04T09:41:17.821Z,46589.50
2023-04-04T09:46:22.384Z,46613.47
2023-04-04T09:51:27.638Z,46625.44
2023-04-04T09:56:35.062Z,46669.38
2023-04-04T10:01:40.160Z,46675.38
2023-04-04T10:06:46.192Z,46667.38
2023-04-04T10:11:52.230Z,46697.34
2023-04-04T10:16:58.464Z,46571.53
2023-04-04T10:22:03.104Z,46619.44
2023-04-04T10:27:08.728Z,46605.47
2023-04-04T10:32:21.383Z,46677.38
2023-04-04T10:37:29.143Z,46655.41
2023-04-04T10:42:41.083Z,46641.41
2023-04-04T10:47:46.795Z,46711.31
2023-04-04T10:52:52.035Z,46705.34
2023-04-04T10:57:58.392Z,46653.41
2023-04-04T11:03:03.929Z,46633.44
2023-04-04T11:08:10.974Z,46611.47
2023-04-04T11:13:18.648Z,46625.44
2023-04-04T11:18:33.364Z,46637.44
2023-04-04T11:24:18.588Z,46605.47
2023-04-04T11:29:51.691Z,46585.50
2023-04-04T11:34:58.930Z,46669.38
2023-04-04T11:40:13.404Z,46691.34
2023-04-04T11:45:22.562Z,46527.59
2023-04-04T11:50:28.446Z,46439.69
2023-04-04T11:55:33.461Z,46497.63
2023-04-04T12:00:40.228Z,46621.44
2023-04-04T12:05:45.720Z,46711.31
2023-04-04T12:10:49.986Z,46645.41
2023-04-04T12:15:57.861Z,46685.38
2023-04-04T12:21:02.326Z,46715.31
2023-04-04T12:26:07.403Z,46565.53
2023-04-04T12:31:14.672Z,46621.44
2023-04-04T12:36:19.697Z,46649.41
2023-04-04T12:41:23.994Z,46687.34
2023-04-04T12:46:30.026Z,46691.34
2023-04-04T12:51:35.284Z,46619.44
2023-04-04T12:56:40.503Z,46553.53
2023-04-04T13:01:48.582Z,46633.44
2023-04-04T13:06:53.041Z,46685.38
2023-04-04T13:11:59.573Z,46699.34
2023-04-04T13:17:08.588Z,46701.34
2023-04-04T13:22:13.833Z,46715.31
2023-04-04T13:27:18.957Z,46765.25
2023-04-04T13:32:25.670Z,46717.31
2023-04-04T13:37:30.888Z,46699.34
2023-04-04T13:42:36.388Z,46715.31
2023-04-04T13:47:43.818Z,46653.41
2023-04-04T13:52:48.716Z,46629.44
2023-04-04T13:57:53.533Z,46717.31
2023-04-04T14:03:00.814Z,46763.25
2023-04-04T14:08:06.598Z,46769.25
2023-04-04T14:13:12.577Z,46781.22
2023-04-04T14:18:19.646Z,46733.28
2023-04-04T14:23:24.813Z,46581.50
2023-04-04T14:28:29.457Z,46673.38
2023-04-04T14:33:36.415Z,46823.19
2023-04-04T14:38:41.733Z,46813.19
2023-04-04T14:43:46.203Z,46803.19
2023-04-04T14:48:53.540Z,46821.19
2023-04-04T14:53:58.601Z,46745.28
2023-04-04T14:59:06.202Z,46825.16
2023-04-04T15:04:12.211Z,46833.16
2023-04-04T15:09:17.319Z,46793.22
2023-04-04T15:14:22.177Z,46809.19
2023-04-04T15:19:29.130Z,46833.16
2023-04-04T15:24:34.050Z,46865.13
2023-04-04T15:29:39.619Z,46889.09
2023-04-04T15:34:45.936Z,46857.13
2023-04-04T15:39:53.486Z,46821.19
2023-04-04T15:44:59.926Z,46861.13
2023-04-04T15:50:07.201Z,46829.16
2023-04-04T15:55:13.769Z,46823.19
2023-04-04T16:00:20.035Z,46885.09
2023-04-04T16:05:27.483Z,46923.03
2023-04-04T16:10:33.176Z,46933.03
2023-04-04T16:15:39.135Z,46929.03
2023-04-04T16:20:45.866Z,46965.00
2023-04-04T16:25:51.377Z,46951.00
2023-04-04T16:30:56.472Z,46935.03
2023-04-04T16:36:02.565Z,46965.00
2023-04-04T16:41:08.115Z,46970.97
2023-04-04T16:46:13.680Z,46949.00
2023-04-04T16:51:21.824Z,46929.03
2023-04-04T16:56:26.605Z,46968.97
2023-04-04T17:01:32.685Z,46970.97
2023-04-04T17:06:39.427Z,46961.00
2023-04-04T17:11:45.313Z,46968.97
2023-04-04T17:16:50.568Z,46988.97
2023-04-04T17:21:57.209Z,46978.97
2023-04-04T17:27:02.837Z,46974.97
2023-04-04T17:32:08.465Z,46998.94
2023-04-04T17:37:15.872Z,46998.94
2023-04-04T17:42:21.839Z,46976.97
2023-04-04T17:47:26.694Z,46984.97
2023-04-04T17:52:33.625Z,47024.91
2023-04-04T17:57:39.361Z,47022.91
2023-04-04T18:02:44.721Z,47004.94
2023-04-04T18:07:51.383Z,47022.91
2023-04-04T18:12:57.083Z,46978.97
2023-04-04T18:18:02.325Z,47014.94
2023-04-04T18:23:09.722Z,46998.94
2023-04-04T18:28:14.415Z,47014.94
2023-04-04T18:33:19.883Z,47032.91
2023-04-04T18:38:26.137Z,47024.91
2023-04-04T18:43:31.297Z,47008.94
2023-04-04T18:48:35.932Z,46992.94
2023-04-04T18:53:42.186Z,46980.97
2023-04-04T18:58:47.027Z,47004.94
2023-04-04T19:03:53.981Z,46990.97
2023-04-04T19:09:04.283Z,47008.94
2023-04-04T19:14:09.315Z,46959.00
2023-04-04T19:19:13.997Z,46967.00
2023-04-04T19:24:19.859Z,46996.94
2023-04-04T19:29:24.572Z,46978.97
2023-04-04T19:34:30.977Z,47010.94
2023-04-04T19:39:36.942Z,46976.97
2023-04-04T19:44:42.652Z,47020.91
2023-04-04T19:49:46.987Z,46963.00
2023-04-04T19:54:53.265Z,46986.97
2023-04-04T20:00:01.943Z,46976.97
2023-04-04T20:05:46.946Z,46980.97
2023-04-04T20:10:57.219Z,46955.00
2023-04-04T20:16:06.976Z,47006.94
2023-04-04T20:21:13.899Z,46968.97
2023-04-04T20:26:47.401Z,46953.00
2023-04-04T20:31:54.559Z,46961.00
2023-04-04T20:36:59.229Z,46976.97
2023-04-04T20:42:18.239Z,46957.00
2023-04-04T20:47:42.943Z,46978.97
2023-04-04T20:52:50.426Z,46947.00
2023-04-04T20:57:58.899Z,46943.03
2023-04-04T21:03:10.820Z,46909.06
2023-04-04T21:08:39.159Z,46939.03
2023-04-04T21:13:46.108Z,46903.06
2023-04-04T21:18:50.745Z,46913.06
2023-04-04T21:23:56.078Z,46891.09
2023-04-04T21:29:04.111Z,46875.09
2023-04-04T21:34:13.872Z,46881.09
2023-04-04T21:39:23.807Z,46891.09
2023-04-04T21:44:29.806Z,46901.06
2023-04-04T21:49:34.051Z,46887.09
2023-04-04T21:54:38.331Z,46895.09
2023-04-04T21:59:44.129Z,46885.09
2023-04-04T22:04:48.464Z,46891.09
2023-04-04T22:09:53.050Z,46859.13
2023-04-04T22:14:59.130Z,46853.13
2023-04-04T22:20:09.568Z,46855.13
2023-04-04T22:25:14.234Z,46821.19
2023-04-04T22:30:19.881Z,46811.19
2023-04-04T22:35:24.224Z,46821.19
2023-04-04T22:40:29.084Z,46773.25
2023-04-04T22:45:35.001Z,46771.25
2023-04-04T22:50:39.438Z,46789.22
2023-04-04T22:55:44.040Z,46765.25
2023-04-04T23:00:50.603Z,46779.22
2023-04-04T23:05:55.582Z,46737.28
2023-04-04T23:10:59.681Z,46711.31
2023-04-04T23:16:06.003Z,46721.31
2023-04-04T23:21:10.314Z,46723.31
2023-04-04T23:26:15.037Z,46715.31
2023-04-04T23:31:20.750Z,46701.34
2023-04-04T23:36:24.948Z,46669.38
2023-04-04T23:41:29.366Z,46661.41
2023-04-04T23:46:35.551Z,46677.38
2023-04-04T23:51:40.167Z,46671.38
2023-04-04T23:56:44.417Z,46713.31
